Time;durP1;ratioP1;P1;durP2;ratioP2;P2;SDS_P1;SDS_P2;PMS_P1;PMS_P2;Temp;Humidity;BMP_temperature;BMP_pressure;BME280_temperature;BME280_humidity;BME280_pressure;Samples;Min_cycle;Max_cycle;Signal;HPM_P1;HPM_P2
2022/12/02 00:01:42;;;;;;;34.80;27.53;;;;;;;4.04;100.00;100817.25;5040411;28;20614;-75
2022/12/02 00:04:20;;;;;;;33.03;26.97;;;;;;;4.05;100.00;100810.41;5052518;28;20272;-74
2022/12/02 00:06:46;;;;;;;40.93;28.67;;;;;;;4.01;100.00;100806.91;5058188;28;20209;-74
2022/12/02 00:09:33;;;;;;;32.23;26.53;;;;;;;3.99;100.00;100811.13;5062157;28;20181;-75
2022/12/02 00:12:01;;;;;;;33.73;25.43;;;;;;;3.98;100.00;100799.13;5059827;28;20247;-74
2022/12/02 00:14:33;;;;;;;35.27;27.40;;;;;;;4.00;100.00;100809.44;5057992;28;20609;-74
2022/12/02 00:16:58;;;;;;;34.47;26.13;;;;;;;4.00;100.00;100806.88;5062345;28;20189;-73
2022/12/02 00:19:24;;;;;;;30.83;25.87;;;;;;;3.99;100.00;100795.75;5062217;28;20170;-75
2022/12/02 00:21:50;;;;;;;33.70;26.60;;;;;;;4.00;100.00;100789.81;5060680;28;20618;-74
2022/12/02 00:24:16;;;;;;;34.23;27.23;;;;;;;4.02;100.00;100794.94;5045555;28;20206;-76
2022/12/02 00:26:42;;;;;;;38.43;28.53;;;;;;;4.02;100.00;100792.41;5065605;28;20263;-74
2022/12/02 00:29:07;;;;;;;35.57;27.93;;;;;;;4.01;100.00;100788.13;5079765;28;20198;-75
2022/12/02 00:31:33;;;;;;;32.33;26.10;;;;;;;4.01;100.00;100783.84;5064762;28;20201;-74
2022/12/02 00:33:59;;;;;;;31.90;26.07;;;;;;;4.02;100.00;100782.16;5043567;28;20202;-75
2022/12/02 00:36:27;;;;;;;34.27;26.07;;;;;;;4.02;100.00;100782.16;5061625;28;20236;-75
2022/12/02 00:38:53;;;;;;;31.00;25.83;;;;;;;4.02;100.00;100782.16;5063676;28;20607;-74
2022/12/02 00:41:19;;;;;;;27.93;22.60;;;;;;;4.03;100.00;100771.97;5058889;28;20249;-74
2022/12/02 00:46:31;;;;;;;29.27;24.23;;;;;;;4.05;100.00;100779.69;5059793;28;20730;-75
2022/12/02 00:48:57;;;;;;;27.73;22.57;;;;;;;4.05;100.00;100772.88;5061489;28;20996;-74
2022/12/02 00:51:23;;;;;;;35.20;27.30;;;;;;;4.06;100.00;100761.81;5043429;28;20728;-75
2022/12/02 00:53:48;;;;;;;32.27;25.30;;;;;;;4.08;100.00;100767.81;5058454;28;20177;-73
2022/12/02 00:56:13;;;;;;;31.97;25.37;;;;;;;4.08;100.00;100769.50;5058857;28;20194;-74
2022/12/02 00:58:39;;;;;;;29.77;24.43;;;;;;;4.08;100.00;100764.38;5061955;28;20305;-74
2022/12/02 01:01:04;;;;;;;31.70;26.23;;;;;;;4.07;100.00;100763.53;5058904;28;20745;-74
2022/12/02 01:03:30;;;;;;;35.13;27.90;;;;;;;4.08;100.00;100764.38;5073875;28;20185;-74
2022/12/02 01:05:55;;;;;;;34.70;26.83;;;;;;;4.05;100.00;100760.06;5042635;28;20639;-76
2022/12/02 01:08:24;;;;;;;36.60;28.60;;;;;;;4.04;100.00;100760.00;5044979;28;20173;-74
2022/12/02 01:10:49;;;;;;;35.07;27.07;;;;;;;4.03;100.00;100759.16;5040646;28;20746;-74
2022/12/02 01:13:15;;;;;;;35.73;28.93;;;;;;;4.04;100.00;100757.44;5056267;28;20186;-74
2022/12/02 01:15:40;;;;;;;35.63;28.90;;;;;;;4.03;100.00;100756.59;5059946;28;20192;-75
2022/12/02 01:18:05;;;;;;;42.63;31.20;;;;;;;4.03;100.00;100761.72;5057932;28;20174;-74
2022/12/02 01:20:31;;;;;;;36.63;30.20;;;;;;;3.98;100.00;100758.16;5042950;28;20248;-75
2022/12/02 01:22:56;;;;;;;39.33;30.07;;;;;;;3.91;100.00;100752.03;5061026;28;20182;-74
2022/12/02 01:25:21;;;;;;;38.50;30.53;;;;;;;3.91;100.00;100749.47;5046157;28;20187;-76
2022/12/02 01:27:47;;;;;;;40.43;29.90;;;;;;;3.88;100.00;100754.50;5060998;28;20242;-75
2022/12/02 01:30:13;;;;;;;39.97;30.67;;;;;;;3.88;100.00;100757.06;5051767;28;20207;-75
2022/12/02 01:32:38;;;;;;;40.07;30.87;;;;;;;3.85;100.00;100757.00;5056505;28;20275;-75
2022/12/02 01:35:04;;;;;;;37.13;30.43;;;;;;;3.82;100.00;100754.34;5060416;28;20257;-75
2022/12/02 01:37:29;;;;;;;42.00;31.47;;;;;;;3.82;100.00;100754.34;5058694;28;20232;-74
2022/12/02 01:39:55;;;;;;;39.97;31.60;;;;;;;3.77;100.00;100749.13;5061853;28;20221;-74
2022/12/02 01:42:20;;;;;;;39.33;29.90;;;;;;;3.77;100.00;100750.78;5048009;28;20191;-75
2022/12/02 01:44:45;;;;;;;42.27;31.10;;;;;;;3.77;100.00;100748.22;5048933;28;20276;-75
2022/12/02 01:47:11;;;;;;;39.83;29.50;;;;;;;3.78;100.00;100749.97;5067015;28;20193;-74
2022/12/02 01:49:36;;;;;;;40.37;30.17;;;;;;;3.76;100.00;100744.81;5066750;28;20174;-75
2022/12/02 01:52:02;;;;;;;47.13;33.80;;;;;;;3.75;100.00;100748.22;5068454;28;20559;-75
2022/12/02 01:54:28;;;;;;;42.60;31.33;;;;;;;3.73;100.00;100749.84;5047462;28;20695;-76
2022/12/02 01:56:53;;;;;;;42.23;30.97;;;;;;;3.70;100.00;100746.34;5066708;28;20198;-74
2022/12/02 01:59:21;;;;;;;43.43;32.07;;;;;;;3.68;100.00;100743.75;5066427;28;20238;-74
2022/12/02 02:01:47;;;;;;;42.37;30.63;;;;;;;3.69;100.00;100739.50;5066189;28;20217;-74
2022/12/02 02:04:12;;;;;;;41.73;31.17;;;;;;;3.67;100.00;100749.69;5081007;28;20186;-75
2022/12/02 02:06:42;;;;;;;43.43;31.33;;;;;;;3.67;100.00;100742.00;5067289;28;20697;-74
2022/12/02 02:09:08;;;;;;;43.17;31.40;;;;;;;3.65;100.00;100739.41;5069456;28;20209;-74
2022/12/02 02:11:38;;;;;;;45.83;31.20;;;;;;;3.64;100.00;100735.13;5065234;28;20202;-73
2022/12/02 02:14:05;;;;;;;42.53;31.67;;;;;;;3.61;100.00;100737.59;5059542;28;20238;-74
2022/12/02 02:16:31;;;;;;;37.80;28.60;;;;;;;3.62;100.00;100734.22;5065066;28;20279;-74
2022/12/02 02:18:57;;;;;;;42.23;30.70;;;;;;;3.65;100.00;100731.72;5063158;28;20190;-75
2022/12/02 02:21:28;;;;;;;38.33;29.70;;;;;;;3.66;100.00;100733.47;5062580;28;20855;-74
2022/12/02 02:23:53;;;;;;;41.20;30.30;;;;;;;3.68;100.00;100727.53;5065551;28;20185;-73
2022/12/02 02:26:19;;;;;;;37.70;28.90;;;;;;;3.70;100.00;100726.72;5066194;28;20584;-73
2022/12/02 02:28:44;;;;;;;43.10;30.97;;;;;;;3.72;100.00;100722.53;5066692;28;21064;-74
2022/12/02 02:31:10;;;;;;;40.13;30.43;;;;;;;3.74;100.00;100723.44;5063130;28;20210;-74
2022/12/02 02:33:36;;;;;;;41.70;31.37;;;;;;;3.69;100.00;100722.44;5058458;28;20199;-74
2022/12/02 02:36:02;;;;;;;40.07;29.43;;;;;;;3.69;100.00;100724.13;5059410;28;20308;-73
2022/12/02 02:38:29;;;;;;;42.80;31.00;;;;;;;3.68;100.00;100722.41;5063026;28;20193;-74
2022/12/02 02:40:56;;;;;;;41.00;30.60;;;;;;;3.66;100.00;100718.13;5060516;28;20328;-74
2022/12/02 02:43:25;;;;;;;40.10;31.47;;;;;;;3.65;100.00;100713.81;5064191;28;20269;-74
2022/12/02 02:45:52;;;;;;;41.73;31.47;;;;;;;3.68;100.00;100715.56;5059300;28;21030;-75
2022/12/02 02:48:18;;;;;;;43.43;32.37;;;;;;;3.65;100.00;100718.94;5047413;28;20244;-73
2022/12/02 02:50:46;;;;;;;43.30;32.70;;;;;;;3.65;100.00;100721.50;5063013;28;20205;-75
2022/12/02 02:53:14;;;;;;;43.80;31.70;;;;;;;3.61;100.00;100713.69;5062748;28;20273;-74
2022/12/02 02:55:40;;;;;;;43.00;32.20;;;;;;;3.59;100.00;100711.09;5045267;28;20184;-74
2022/12/02 02:58:16;;;;;;;43.30;31.90;;;;;;;3.63;100.00;100706.94;5061565;28;20667;-75
2022/12/02 03:00:46;;;;;;;45.33;32.47;;;;;;;3.60;100.00;100705.13;5059199;28;20217;-75
2022/12/02 03:03:15;;;;;;;44.90;32.97;;;;;;;3.61;100.00;100698.34;5060461;28;20217;-74
2022/12/02 03:05:41;;;;;;;44.43;32.07;;;;;;;3.59;100.00;100705.97;5066590;28;20802;-75
2022/12/02 03:08:07;;;;;;;41.73;32.47;;;;;;;3.59;100.00;100698.28;5065759;28;20189;-73
2022/12/02 03:10:33;;;;;;;43.70;32.30;;;;;;;3.59;100.00;100700.00;5066660;28;20343;-74
2022/12/02 03:12:59;;;;;;;43.23;32.83;;;;;;;3.60;100.00;100702.59;5060248;28;20264;-73
2022/12/02 03:15:26;;;;;;;48.30;34.57;;;;;;;3.58;100.00;100693.13;5058755;28;20196;-74
2022/12/02 03:17:52;;;;;;;47.83;33.80;;;;;;;3.50;100.00;100698.91;5063020;28;20250;-74
2022/12/02 03:20:19;;;;;;;50.10;34.40;;;;;;;3.48;100.00;100692.03;5063508;28;20289;-74
2022/12/02 03:22:45;;;;;;;44.63;31.87;;;;;;;3.49;100.00;100689.50;5060070;28;20185;-74
2022/12/02 03:25:11;;;;;;;47.43;33.33;;;;;;;3.48;100.00;100687.75;5057299;28;20248;-73
2022/12/02 03:27:36;;;;;;;47.63;34.67;;;;;;;3.46;100.00;100689.44;5062264;28;20739;-74
2022/12/02 03:30:03;;;;;;;42.33;32.07;;;;;;;3.48;100.00;100689.47;5046569;28;20205;-75
2022/12/02 03:32:28;;;;;;;44.30;33.83;;;;;;;3.46;100.00;100698.78;5063649;28;20182;-74
2022/12/02 03:34:54;;;;;;;42.97;32.23;;;;;;;3.47;100.00;100697.97;5040547;28;20200;-74
2022/12/02 03:37:21;;;;;;;41.40;31.10;;;;;;;3.48;100.00;100698.00;5063909;28;20189;-74
2022/12/02 03:39:46;;;;;;;41.07;30.60;;;;;;;3.49;100.00;100699.72;5065645;28;20340;-74
2022/12/02 03:42:12;;;;;;;41.03;29.53;;;;;;;3.51;100.00;100698.09;5053372;28;20721;-75
2022/12/02 03:44:37;;;;;;;38.70;27.93;;;;;;;3.54;100.00;100699.88;5061268;28;20187;-74
2022/12/02 03:47:03;;;;;;;34.87;26.97;;;;;;;3.57;100.00;100701.63;5077811;28;20182;-74
2022/12/02 03:49:30;;;;;;;34.83;26.00;;;;;;;3.61;100.00;100698.34;5059242;28;20182;-73
2022/12/02 03:51:56;;;;;;;34.67;26.20;;;;;;;3.62;100.00;100700.09;5054098;28;20248;-74
2022/12/02 03:54:21;;;;;;;36.60;27.30;;;;;;;3.61;100.00;100694.06;5052327;28;20210;-74
2022/12/02 03:56:47;;;;;;;34.27;25.93;;;;;;;3.62;100.00;100693.25;5062139;28;20201;-74
2022/12/02 03:59:19;;;;;;;33.83;25.83;;;;;;;3.65;100.00;100692.47;5058051;28;21053;-76
2022/12/02 04:01:45;;;;;;;37.47;28.83;;;;;;;3.68;100.00;100689.97;5057581;28;20230;-73
2022/12/02 04:04:10;;;;;;;37.40;29.30;;;;;;;3.68;100.00;100684.00;5040485;28;20182;-74
2022/12/02 04:06:35;;;;;;;36.90;26.67;;;;;;;3.66;100.00;100683.94;5057461;28;20186;-74
2022/12/02 04:09:00;;;;;;;34.37;27.27;;;;;;;3.66;100.00;100686.50;5057766;28;20187;-73
2022/12/02 04:11:26;;;;;;;34.87;26.53;;;;;;;3.68;100.00;100676.34;5043770;28;20206;-74
2022/12/02 04:13:51;;;;;;;35.10;25.80;;;;;;;3.68;100.00;100677.19;5044529;28;20943;-74
2022/12/02 04:16:17;;;;;;;32.53;25.77;;;;;;;3.70;100.00;100674.69;5057495;28;20197;-74
2022/12/02 04:18:42;;;;;;;30.60;24.20;;;;;;;3.72;100.00;100668.75;5058118;28;20272;-73
2022/12/02 04:21:08;;;;;;;32.30;24.83;;;;;;;3.74;100.00;100664.56;5059549;28;20222;-74
2022/12/02 04:23:33;;;;;;;31.03;25.10;;;;;;;3.75;100.00;100668.84;5061876;28;20877;-74
2022/12/02 04:25:58;;;;;;;32.03;24.77;;;;;;;3.76;100.00;100664.56;5059956;28;21734;-75
2022/12/02 04:28:24;;;;;;;36.37;27.23;;;;;;;3.75;100.00;100666.28;5060686;28;20831;-74
2022/12/02 04:30:49;;;;;;;36.53;27.43;;;;;;;3.75;100.00;100660.28;5057768;28;20214;-73
2022/12/02 04:33:14;;;;;;;36.63;29.37;;;;;;;3.73;100.00;100654.25;5058402;28;20190;-74
2022/12/02 04:35:40;;;;;;;34.07;25.70;;;;;;;3.73;100.00;100656.81;5076779;28;20254;-75
2022/12/02 04:38:05;;;;;;;40.67;30.60;;;;;;;3.71;100.00;100656.78;5060767;28;20193;-73
2022/12/02 04:40:30;;;;;;;36.97;28.50;;;;;;;3.70;100.00;100656.75;5042472;28;20209;-74
2022/12/02 04:42:56;;;;;;;38.73;31.20;;;;;;;3.69;100.00;100652.47;5054459;28;20686;-74
2022/12/02 04:45:21;;;;;;;37.57;28.27;;;;;;;3.70;100.00;100649.94;5059682;28;20186;-74
2022/12/02 04:47:46;;;;;;;41.37;31.47;;;;;;;3.70;100.00;100642.25;5044463;28;20184;-73
2022/12/02 04:50:12;;;;;;;43.20;32.13;;;;;;;3.67;100.00;100647.28;5056965;28;20210;-74
2022/12/02 04:52:37;;;;;;;43.10;30.73;;;;;;;3.64;100.00;100644.66;5060001;28;20190;-74
2022/12/02 04:55:03;;;;;;;42.13;31.13;;;;;;;3.61;100.00;100639.47;5042884;28;20206;-73
2022/12/02 04:57:28;;;;;;;39.37;30.07;;;;;;;3.60;100.00;100647.97;5059678;28;20206;-74
2022/12/02 04:59:54;;;;;;;40.23;29.50;;;;;;;3.58;100.00;100645.38;5041450;28;20229;-74
2022/12/02 05:02:20;;;;;;;40.97;30.57;;;;;;;3.55;100.00;100642.75;5044652;28;20227;-73
2022/12/02 05:04:45;;;;;;;41.10;31.33;;;;;;;3.54;100.00;100641.03;5063228;28;20197;-74
2022/12/02 05:07:10;;;;;;;40.50;30.63;;;;;;;3.55;100.00;100645.31;5064036;28;20284;-74
2022/12/02 05:09:36;;;;;;;38.90;28.47;;;;;;;3.54;100.00;100637.56;5061299;28;20234;-73
2022/12/02 05:12:01;;;;;;;41.80;31.03;;;;;;;3.56;100.00;100641.91;5041883;28;20849;-73
2022/12/02 05:14:26;;;;;;;43.07;30.97;;;;;;;3.53;100.00;100641.84;5057172;28;20194;-74
2022/12/02 05:16:52;;;;;;;45.37;32.33;;;;;;;3.53;100.00;100638.41;5061369;28;21066;-75
2022/12/02 05:19:17;;;;;;;45.33;31.27;;;;;;;3.51;100.00;100640.94;5061429;28;20186;-73
2022/12/02 05:21:42;;;;;;;44.50;32.37;;;;;;;3.51;100.00;100640.94;5046353;28;20315;-73
2022/12/02 05:24:08;;;;;;;45.23;32.20;;;;;;;3.50;100.00;100639.19;5063277;28;20198;-73
2022/12/02 05:26:33;;;;;;;44.80;31.70;;;;;;;3.46;100.00;100642.50;5055879;28;20201;-74
2022/12/02 05:28:58;;;;;;;49.47;33.17;;;;;;;3.38;100.00;100642.28;5040915;28;20643;-74
2022/12/02 05:31:24;;;;;;;50.17;32.47;;;;;;;3.34;100.00;100636.25;5060847;28;20198;-73
2022/12/02 05:33:49;;;;;;;46.03;33.30;;;;;;;3.34;100.00;100638.81;5034962;28;20190;-73
2022/12/02 05:36:14;;;;;;;44.57;31.80;;;;;;;3.33;100.00;100636.19;5060934;28;20185;-74
2022/12/02 05:38:40;;;;;;;45.43;32.23;;;;;;;3.34;100.00;100636.25;5081230;28;20187;-75
2022/12/02 05:41:05;;;;;;;45.63;32.67;;;;;;;3.33;100.00;100634.50;5082076;28;20201;-75
2022/12/02 05:43:37;;;;;;;46.33;32.27;;;;;;;3.34;100.00;100638.81;5059713;28;20209;-73
2022/12/02 05:46:11;;;;;;;44.67;32.03;;;;;;;3.31;100.00;100637.88;5048065;28;20190;-73
2022/12/02 05:48:37;;;;;;;45.30;32.13;;;;;;;3.29;100.00;100640.38;5060379;28;20186;-75
2022/12/02 05:51:08;;;;;;;48.30;32.60;;;;;;;3.28;100.00;100630.09;5065939;28;20202;-73
2022/12/02 05:53:34;;;;;;;47.37;31.23;;;;;;;3.26;100.00;100631.75;5071138;28;20243;-73
2022/12/02 05:56:00;;;;;;;45.43;32.07;;;;;;;3.27;100.00;100634.34;5064368;28;20190;-74
2022/12/02 05:58:26;;;;;;;47.27;32.57;;;;;;;3.27;100.00;100625.81;5058157;28;20324;-76
2022/12/02 06:00:57;;;;;;;47.17;33.07;;;;;;;3.27;100.00;100631.78;5064225;28;20208;-73
2022/12/02 06:03:23;;;;;;;47.87;33.37;;;;;;;3.27;100.00;100636.91;5049311;28;20193;-73
2022/12/02 06:05:52;;;;;;;44.30;31.47;;;;;;;3.26;100.00;100634.31;5061447;28;20440;-74
2022/12/02 06:08:18;;;;;;;45.07;32.07;;;;;;;3.27;100.00;100634.34;5053991;28;20662;-73
2022/12/02 06:10:49;;;;;;;46.20;32.40;;;;;;;3.27;100.00;100636.91;5078779;28;20630;-75
2022/12/02 06:13:23;;;;;;;51.60;33.03;;;;;;;3.28;100.00;100630.09;5074321;28;20209;-75
2022/12/02 06:15:50;;;;;;;44.90;32.53;;;;;;;3.28;100.00;100624.97;5066858;28;20194;-75
2022/12/02 06:18:22;;;;;;;43.40;31.03;;;;;;;3.31;100.00;100630.19;5062604;28;20220;-74
2022/12/02 06:20:52;;;;;;;43.60;31.10;;;;;;;3.29;100.00;100632.69;5062607;28;20336;-74
2022/12/02 06:23:22;;;;;;;44.53;31.37;;;;;;;3.24;100.00;100629.16;5062509;28;20983;-73
2022/12/02 06:25:50;;;;;;;44.83;31.60;;;;;;;3.24;100.00;100623.16;5062081;28;20193;-74
2022/12/02 06:28:29;;;;;;;43.83;32.17;;;;;;;3.22;100.00;100623.13;5061150;28;20209;-74
2022/12/02 06:30:57;;;;;;;40.17;30.23;;;;;;;3.25;100.00;100623.22;5066889;28;20200;-73
2022/12/02 06:33:29;;;;;;;47.27;33.00;;;;;;;3.26;100.00;100613.84;5065810;28;20333;-71
2022/12/02 06:35:55;;;;;;;49.00;32.00;;;;;;;3.27;100.00;100621.53;5071927;28;20182;-74
2022/12/02 06:38:33;;;;;;;41.77;30.67;;;;;;;3.27;100.00;100618.13;5063566;28;20273;-74
2022/12/02 06:41:01;;;;;;;40.90;29.60;;;;;;;3.26;100.00;100618.97;5066463;28;20582;-73
2022/12/02 06:43:29;;;;;;;45.40;31.63;;;;;;;3.26;100.00;100611.28;5043828;28;20267;-75
2022/12/02 06:45:55;;;;;;;42.97;30.83;;;;;;;3.28;100.00;100618.16;5066191;28;20615;-74
2022/12/02 06:48:33;;;;;;;45.20;32.00;;;;;;;3.30;100.00;100620.78;5062644;28;20187;-75
2022/12/02 06:51:11;;;;;;;45.37;31.47;;;;;;;3.31;100.00;100625.94;5050561;28;20292;-74
2022/12/02 06:53:39;;;;;;;45.23;30.67;;;;;;;3.30;100.00;100623.34;5065131;28;20528;-75
2022/12/02 06:56:18;;;;;;;47.00;32.40;;;;;;;3.28;100.00;100623.28;5072682;28;20204;-73
2022/12/02 06:58:46;;;;;;;41.80;30.77;;;;;;;3.25;100.00;100630.00;5059731;28;20735;-73
2022/12/02 07:01:20;;;;;;;46.30;33.87;;;;;;;3.22;100.00;100618.03;5057797;28;20243;-74
2022/12/02 07:03:56;;;;;;;47.03;34.60;;;;;;;3.23;100.00;100621.44;5072394;28;20186;-74
2022/12/02 07:06:27;;;;;;;49.87;33.83;;;;;;;3.18;100.00;100618.75;5064241;28;20185;-73
2022/12/02 07:08:56;;;;;;;51.27;35.30;;;;;;;3.17;100.00;100624.69;5068921;28;20193;-73
2022/12/02 07:11:48;;;;;;;53.23;35.60;;;;;;;3.14;100.00;100622.94;5063916;28;20372;-75
2022/12/02 07:14:16;;;;;;;49.87;33.27;;;;;;;3.12;100.00;100619.47;5064522;28;20185;-74
2022/12/02 07:16:41;;;;;;;54.00;37.10;;;;;;;3.11;100.00;100622.84;5079859;28;20178;-74
2022/12/02 07:19:14;;;;;;;49.37;34.20;;;;;;;3.09;100.00;100621.06;5078173;28;20204;-76
2022/12/02 07:21:39;;;;;;;50.13;34.37;;;;;;;3.08;100.00;100620.19;5062863;28;20943;-73
2022/12/02 07:24:09;;;;;;;55.70;37.10;;;;;;;3.10;100.00;100616.00;5058231;28;20243;-75
2022/12/02 07:26:35;;;;;;;55.13;37.13;;;;;;;3.10;100.00;100618.56;5056967;28;20198;-75
2022/12/02 07:29:01;;;;;;;59.53;36.93;;;;;;;3.11;100.00;100615.16;5055578;28;20190;-76
2022/12/02 07:31:29;;;;;;;57.47;38.13;;;;;;;3.13;100.00;100618.63;5056194;28;20247;-74
2022/12/02 07:33:54;;;;;;;54.13;37.97;;;;;;;3.16;100.00;100620.41;5061074;28;20639;-74
2022/12/02 07:36:20;;;;;;;50.83;36.87;;;;;;;3.14;100.00;100616.94;5048003;28;20193;-74
2022/12/02 07:38:45;;;;;;;55.13;36.17;;;;;;;3.15;100.00;100614.44;5078975;28;20610;-75
2022/12/02 07:41:12;;;;;;;55.77;35.57;;;;;;;3.18;100.00;100609.38;5046183;28;20242;-74
2022/12/02 07:43:37;;;;;;;47.20;32.37;;;;;;;3.25;100.00;100618.09;5060091;28;20268;-74
2022/12/02 07:46:03;;;;;;;49.00;34.30;;;;;;;3.29;100.00;100611.38;5065901;28;20269;-74
2022/12/02 07:48:28;;;;;;;53.90;35.13;;;;;;;3.32;100.00;100611.47;5063230;28;20190;-75
2022/12/02 07:50:53;;;;;;;45.30;32.83;;;;;;;3.33;100.00;100610.59;5056948;28;20197;-74
2022/12/02 07:53:19;;;;;;;54.80;37.97;;;;;;;3.34;100.00;100608.09;5071234;28;20243;-74
2022/12/02 07:55:44;;;;;;;54.03;36.47;;;;;;;3.36;100.00;100610.69;5066576;28;20186;-75
2022/12/02 07:58:09;;;;;;;56.73;36.47;;;;;;;3.38;100.00;100603.06;5060483;28;20415;-75
2022/12/02 08:00:35;;;;;;;54.60;36.83;;;;;;;3.39;100.00;100605.66;5063175;28;20220;-75
2022/12/02 08:03:01;;;;;;;53.93;35.80;;;;;;;3.40;100.00;100604.84;5063851;28;21199;-74
2022/12/02 08:05:27;;;;;;;53.03;34.47;;;;;;;3.45;100.00;100612.63;5061604;28;20621;-74
2022/12/02 08:07:52;;;;;;;48.83;34.17;;;;;;;3.48;100.00;100607.59;5077736;28;20658;-74
2022/12/02 08:10:18;;;;;;;55.67;36.47;;;;;;;3.50;100.00;100603.38;5078193;28;20291;-74
2022/12/02 08:12:44;;;;;;;49.80;33.77;;;;;;;3.53;100.00;100611.13;5049099;28;20677;-74
2022/12/02 08:15:10;;;;;;;49.50;34.97;;;;;;;3.58;100.00;100609.53;5064998;28;20231;-74
2022/12/02 08:17:36;;;;;;;55.03;37.40;;;;;;;3.59;100.00;100606.16;5063979;28;20183;-73
2022/12/02 08:20:04;;;;;;;57.37;39.87;;;;;;;3.58;100.00;100606.13;5061785;28;20220;-74
2022/12/02 08:22:29;;;;;;;58.30;40.53;;;;;;;3.56;100.00;100602.66;5065676;28;20254;-74
2022/12/02 08:24:54;;;;;;;60.87;43.90;;;;;;;3.57;100.00;100602.69;5063184;28;20619;-76
2022/12/02 08:27:21;;;;;;;55.63;37.10;;;;;;;3.53;100.00;100603.47;5047975;28;20182;-74
2022/12/02 08:29:48;;;;;;;49.33;35.10;;;;;;;3.50;100.00;100599.09;5043328;28;20217;-75
2022/12/02 08:32:15;;;;;;;49.03;35.37;;;;;;;3.47;100.00;100598.19;5046142;28;20179;-74
2022/12/02 08:34:40;;;;;;;46.13;32.50;;;;;;;3.46;100.00;100599.00;5048801;28;20208;-74
2022/12/02 08:37:06;;;;;;;50.37;34.73;;;;;;;3.46;100.00;100599.88;5055712;28;20186;-75
2022/12/02 08:39:31;;;;;;;46.40;33.17;;;;;;;3.44;100.00;100601.53;5075678;28;20702;-73
2022/12/02 08:41:56;;;;;;;49.13;32.37;;;;;;;3.43;100.00;100596.34;5048981;28;20719;-74
2022/12/02 08:44:21;;;;;;;50.07;33.37;;;;;;;3.44;100.00;100600.66;5046903;28;20229;-76
2022/12/02 08:46:47;;;;;;;48.00;34.10;;;;;;;3.44;100.00;100592.97;5080315;28;20204;-73
2022/12/02 08:49:12;;;;;;;47.17;34.70;;;;;;;3.43;100.00;100586.13;5051395;28;20185;-73
2022/12/02 08:51:37;;;;;;;49.73;33.17;;;;;;;3.46;100.00;100584.53;5071489;28;20194;-74
2022/12/02 08:54:03;;;;;;;47.47;34.40;;;;;;;3.48;100.00;100585.41;5071919;28;20268;-74
2022/12/02 08:56:28;;;;;;;47.83;34.10;;;;;;;3.46;100.00;100592.19;5057457;28;20273;-74
2022/12/02 08:58:54;;;;;;;45.23;32.27;;;;;;;3.47;100.00;100586.25;5051831;28;20204;-75
2022/12/02 09:01:19;;;;;;;48.93;32.90;;;;;;;3.44;100.00;100586.19;5058079;28;20244;-74
2022/12/02 09:03:44;;;;;;;45.73;32.80;;;;;;;3.43;100.00;100586.13;5054933;28;20610;-75
2022/12/02 09:06:09;;;;;;;48.37;33.50;;;;;;;3.41;100.00;100582.66;5074352;28;20233;-74
2022/12/02 09:08:35;;;;;;;45.50;31.77;;;;;;;3.41;100.00;100588.66;5054308;28;20553;-75
2022/12/02 09:11:00;;;;;;;47.73;32.53;;;;;;;3.44;100.00;100587.84;5063434;28;20245;-74
2022/12/02 09:13:25;;;;;;;47.93;33.40;;;;;;;3.48;100.00;100582.84;5062613;28;20269;-74
2022/12/02 09:15:51;;;;;;;49.87;34.13;;;;;;;3.47;100.00;100586.25;5043274;28;20198;-74
2022/12/02 09:18:16;;;;;;;46.77;32.50;;;;;;;3.51;100.00;100582.06;5064286;28;20258;-75
2022/12/02 09:20:41;;;;;;;48.00;33.53;;;;;;;3.49;100.00;100588.84;5058855;28;20220;-74
2022/12/02 09:23:07;;;;;;;48.17;32.97;;;;;;;3.47;100.00;100590.50;5079582;28;20890;-74
2022/12/02 09:25:32;;;;;;;46.97;33.03;;;;;;;3.45;100.00;100582.78;5045919;28;20186;-74
2022/12/02 09:27:57;;;;;;;47.03;33.07;;;;;;;3.46;100.00;100593.88;5046026;28;20189;-74
2022/12/02 09:30:23;;;;;;;49.37;33.47;;;;;;;3.45;100.00;100592.16;5063501;28;20751;-73
2022/12/02 09:32:48;;;;;;;46.37;33.03;;;;;;;3.44;100.00;100592.97;5059677;28;20190;-75
2022/12/02 09:35:13;;;;;;;48.00;33.23;;;;;;;3.44;100.00;100585.28;5045491;28;21828;-74
2022/12/02 09:37:39;;;;;;;49.63;31.83;;;;;;;3.45;100.00;100584.47;5062041;28;20236;-74
2022/12/02 09:40:05;;;;;;;42.17;31.50;;;;;;;3.46;100.00;100587.09;5071787;28;20666;-74
2022/12/02 09:42:31;;;;;;;49.67;34.57;;;;;;;3.50;100.00;100588.88;5045825;28;20217;-76
2022/12/02 09:44:57;;;;;;;44.73;31.37;;;;;;;3.51;100.00;100577.81;5060550;28;20252;-75
2022/12/02 09:47:23;;;;;;;47.73;32.47;;;;;;;3.51;100.00;100579.53;5064571;28;20197;-75
2022/12/02 09:49:48;;;;;;;43.83;33.37;;;;;;;3.54;100.00;100579.59;5057388;28;20230;-75
2022/12/02 09:52:20;;;;;;;51.33;34.23;;;;;;;3.51;100.00;100575.25;5063531;28;20209;-74
2022/12/02 09:54:45;;;;;;;43.77;30.87;;;;;;;3.53;100.00;100572.75;5062108;28;20518;-74
2022/12/02 09:57:16;;;;;;;43.97;32.07;;;;;;;3.55;100.00;100571.09;5062079;28;20194;-74
2022/12/02 09:59:42;;;;;;;43.10;31.13;;;;;;;3.63;100.00;100568.72;5059192;28;20285;-76
2022/12/02 10:02:23;;;;;;;43.57;31.70;;;;;;;3.63;100.00;100577.25;5059498;28;20225;-74
2022/12/02 10:04:48;;;;;;;46.83;32.63;;;;;;;3.64;100.00;100578.09;5049360;28;20190;-74
2022/12/02 10:07:14;;;;;;;43.03;31.43;;;;;;;3.69;100.00;100566.28;5071054;28;20198;-74
2022/12/02 10:09:39;;;;;;;46.10;32.27;;;;;;;3.73;100.00;100577.47;5067222;28;20577;-73
2022/12/02 10:12:07;;;;;;;41.17;31.07;;;;;;;3.76;100.00;100568.19;5085504;28;20231;-74
2022/12/02 10:14:32;;;;;;;46.33;32.77;;;;;;;3.77;100.00;100561.34;5081138;28;20190;-73
2022/12/02 10:16:58;;;;;;;43.07;32.27;;;;;;;3.79;100.00;100565.66;5066333;28;20198;-74
2022/12/02 10:19:23;;;;;;;41.93;30.87;;;;;;;3.81;100.00;100558.03;5065123;28;20190;-73
2022/12/02 10:21:50;;;;;;;41.40;29.43;;;;;;;3.79;100.00;100550.31;5077928;28;20208;-74
2022/12/02 10:24:33;;;;;;;41.33;29.67;;;;;;;3.78;100.00;100556.25;5068681;28;20544;-74
2022/12/02 10:26:58;;;;;;;41.53;29.37;;;;;;;3.78;100.00;100551.13;5068008;28;20670;-75
2022/12/02 10:29:29;;;;;;;43.63;30.27;;;;;;;3.77;100.00;100549.44;5054232;28;20186;-74
2022/12/02 10:31:56;;;;;;;41.23;29.57;;;;;;;3.76;100.00;100547.69;5062730;28;20229;-73
2022/12/02 10:34:23;;;;;;;45.23;31.70;;;;;;;3.77;100.00;100546.88;5067774;28;20227;-73
2022/12/02 10:36:49;;;;;;;47.00;31.67;;;;;;;3.76;100.00;100540.03;5047987;28;20178;-75
2022/12/02 10:39:33;;;;;;;45.77;31.57;;;;;;;3.78;100.00;100542.59;5072043;28;20559;-73
2022/12/02 10:42:07;;;;;;;44.23;33.03;;;;;;;3.79;100.00;100537.50;5061520;28;20218;-74
2022/12/02 10:44:35;;;;;;;45.33;32.43;;;;;;;3.75;100.00;100540.84;5061593;28;20220;-74
2022/12/02 10:47:22;;;;;;;41.50;30.77;;;;;;;3.77;100.00;100533.19;5047547;28;20285;-74
2022/12/02 10:49:51;;;;;;;42.93;29.73;;;;;;;3.84;100.00;100532.50;5045165;28;20738;-74
2022/12/02 10:52:20;;;;;;;40.37;28.77;;;;;;;3.87;100.00;100526.59;5065451;28;20240;-75
2022/12/02 10:54:49;;;;;;;40.17;29.13;;;;;;;3.88;100.00;100521.50;5072550;28;20187;-73
2022/12/02 10:57:23;;;;;;;44.33;31.17;;;;;;;3.92;100.00;100518.19;5050617;28;20269;-74
2022/12/02 10:59:50;;;;;;;42.67;29.73;;;;;;;3.94;100.00;100519.06;5063203;28;20770;-74
2022/12/02 11:02:21;;;;;;;44.23;30.07;;;;;;;3.96;100.00;100519.97;5065137;28;20213;-74
2022/12/02 11:04:47;;;;;;;41.07;29.57;;;;;;;3.96;100.00;100516.53;5067247;28;20195;-74
2022/12/02 11:07:15;;;;;;;42.87;30.20;;;;;;;3.92;100.00;100514.75;5062533;28;20178;-74
2022/12/02 11:09:45;;;;;;;44.67;30.57;;;;;;;3.96;100.00;100512.28;5063495;28;20229;-75
2022/12/02 11:12:48;;;;;;;42.43;28.47;;;;;;;3.99;100.00;100510.63;5062643;28;20227;-74